Time;durP1;ratioP1;P1;durP2;ratioP2;P2;SDS_P1;SDS_P2;PMS_P1;PMS_P2;Temp;Humidity;BMP_temperature;BMP_pressure;BME280_temperature;BME280_humidity;BME280_pressure;Samples;Min_cycle;Max_cycle;Signal;HPM_P1;HPM_P2
2023/07/15 00:00:53;;;;;;;1.23;1.02;;;;;;;;;;2099434;28;20036;-69
2023/07/15 00:02:12;;;;;;;1.13;1.10;;;;;;;;;;2099683;28;20140;-69
2023/07/15 00:03:31;;;;;;;1.45;1.35;;;;;;;;;;2101488;28;20040;-69
2023/07/15 00:04:50;;;;;;;2.28;1.17;;;;;;;;;;2100158;28;20020;-68
2023/07/15 00:06:09;;;;;;;1.85;1.00;;;;;;;;;;2099982;28;20717;-69
2023/07/15 00:07:27;;;;;;;1.25;0.90;;;;;;;;;;2099706;28;20115;-68
2023/07/15 00:08:47;;;;;;;1.15;1.05;;;;;;;;;;2100576;28;20107;-65
2023/07/15 00:10:06;;;;;;;2.88;1.20;;;;;;;;;;2100853;28;20111;-68
2023/07/15 00:11:33;;;;;;;1.67;1.10;;;;;;;;;;2100886;28;20028;-69
2023/07/15 00:12:52;;;;;;;1.80;1.10;;;;;;;;;;2099835;28;20044;-69
2023/07/15 00:14:19;;;;;;;1.23;1.10;;;;;;;;;;2100661;28;20082;-69
2023/07/15 00:15:39;;;;;;;1.27;0.93;;;;;;;;;;2100508;28;20032;-68
2023/07/15 00:16:59;;;;;;;3.72;1.08;;;;;;;;;;2100654;28;20024;-69
2023/07/15 00:18:19;;;;;;;3.20;1.02;;;;;;;;;;2099876;28;20020;-69
2023/07/15 00:19:39;;;;;;;4.28;1.20;;;;;;;;;;2100762;28;20024;-68
2023/07/15 00:20:58;;;;;;;3.63;1.10;;;;;;;;;;2099910;28;20060;-67
2023/07/15 00:22:17;;;;;;;3.75;1.08;;;;;;;;;;2099766;28;20067;-69
2023/07/15 00:23:36;;;;;;;1.95;0.95;;;;;;;;;;2100147;28;20033;-68
2023/07/15 00:24:55;;;;;;;1.33;1.00;;;;;;;;;;2099592;28;20095;-70
2023/07/15 00:26:14;;;;;;;2.03;1.00;;;;;;;;;;2099913;28;20489;-68
2023/07/15 00:27:34;;;;;;;1.50;1.20;;;;;;;;;;2099635;28;20056;-69
2023/07/15 00:28:53;;;;;;;2.78;1.25;;;;;;;;;;2100131;28;20029;-69
2023/07/15 00:30:16;;;;;;;3.08;1.23;;;;;;;;;;2099641;28;20025;-68
2023/07/15 00:31:34;;;;;;;;;;;;;;;;;;2100859;28;20036;-69
2023/07/15 00:32:54;;;;;;;1.83;0.93;;;;;;;;;;2100843;28;19908;-69
2023/07/15 00:34:13;;;;;;;1.95;0.88;;;;;;;;;;2099418;28;20024;-69
2023/07/15 00:35:32;;;;;;;1.38;1.00;;;;;;;;;;2100176;28;20056;-69
2023/07/15 00:36:51;;;;;;;2.70;1.13;;;;;;;;;;2100972;28;20025;-69
2023/07/15 00:38:12;;;;;;;4.43;1.48;;;;;;;;;;2099859;28;20021;-69
2023/07/15 00:39:32;;;;;;;3.10;1.23;;;;;;;;;;2099980;28;20032;-68
2023/07/15 00:40:51;;;;;;;4.63;1.83;;;;;;;;;;2091054;28;20020;-69
2023/07/15 00:42:14;;;;;;;1.20;1.20;;;;;;;;;;2096492;28;20025;-69
2023/07/15 00:44:03;;;;;;;2.05;1.00;;;;;;;;;;2090536;28;20041;-68
2023/07/15 00:45:22;;;;;;;3.25;1.30;;;;;;;;;;2096672;28;20032;-69
2023/07/15 00:47:02;;;;;;;1.63;1.17;;;;;;;;;;2099265;28;20036;-68
2023/07/15 00:48:24;;;;;;;1.20;1.00;;;;;;;;;;2100230;28;20501;-69
2023/07/15 00:49:43;;;;;;;2.35;1.30;;;;;;;;;;2099970;28;20116;-69
2023/07/15 00:51:02;;;;;;;1.60;1.00;;;;;;;;;;2099736;28;20032;-69
2023/07/15 00:52:22;;;;;;;3.33;1.33;;;;;;;;;;2098941;28;20104;-68
2023/07/15 00:53:41;;;;;;;1.00;1.00;;;;;;;;;;2098724;28;20032;-68
2023/07/15 00:55:01;;;;;;;1.60;0.90;;;;;;;;;;2100345;28;20024;-69
2023/07/15 00:56:25;;;;;;;2.15;1.40;;;;;;;;;;2098363;28;20512;-69
2023/07/15 00:57:44;;;;;;;2.72;1.20;;;;;;;;;;2099335;28;20481;-69
2023/07/15 00:59:03;;;;;;;3.85;1.40;;;;;;;;;;2100419;28;20065;-69
2023/07/15 01:00:23;;;;;;;1.92;1.17;;;;;;;;;;2099568;28;20108;-68
2023/07/15 01:01:44;;;;;;;2.45;1.10;;;;;;;;;;2099695;28;20024;-67
2023/07/15 01:03:03;;;;;;;3.65;1.52;;;;;;;;;;2098506;28;20401;-69
2023/07/15 01:04:22;;;;;;;1.50;1.17;;;;;;;;;;2097609;28;20041;-68
2023/07/15 01:05:41;;;;;;;2.78;1.08;;;;;;;;;;2097793;28;20024;-68
2023/07/15 01:07:00;;;;;;;1.67;1.20;;;;;;;;;;2100567;28;20032;-69
2023/07/15 01:08:19;;;;;;;3.75;1.10;;;;;;;;;;2101261;28;20032;-69
2023/07/15 01:09:39;;;;;;;1.52;1.42;;;;;;;;;;2100315;28;20029;-69
2023/07/15 01:10:58;;;;;;;2.00;1.20;;;;;;;;;;2099094;28;20517;-69
2023/07/15 01:12:17;;;;;;;1.70;1.20;;;;;;;;;;2098056;28;20051;-68
2023/07/15 01:13:36;;;;;;;1.23;1.10;;;;;;;;;;2091380;28;20028;-69
2023/07/15 01:14:55;;;;;;;2.35;1.77;;;;;;;;;;2095838;28;20032;-67
2023/07/15 01:16:13;;;;;;;2.15;1.30;;;;;;;;;;2100491;28;20033;-65
2023/07/15 01:17:33;;;;;;;2.45;1.17;;;;;;;;;;2098651;28;20033;-69
2023/07/15 01:18:51;;;;;;;2.42;1.20;;;;;;;;;;2090289;28;20547;-68
2023/07/15 01:20:11;;;;;;;1.27;0.82;;;;;;;;;;2094874;28;20028;-68
2023/07/15 01:21:32;;;;;;;5.25;2.08;;;;;;;;;;2100516;28;20478;-69
2023/07/15 01:22:51;;;;;;;2.25;1.42;;;;;;;;;;2099085;28;20068;-69
2023/07/15 01:24:11;;;;;;;1.88;1.40;;;;;;;;;;2100255;28;20115;-66
2023/07/15 01:25:29;;;;;;;1.50;1.40;;;;;;;;;;2100084;28;20481;-68
2023/07/15 01:26:54;;;;;;;5.05;1.83;;;;;;;;;;2100164;28;20032;-69
2023/07/15 01:28:13;;;;;;;1.58;1.10;;;;;;;;;;2099213;28;20068;-69
2023/07/15 01:29:32;;;;;;;1.63;1.10;;;;;;;;;;2099071;28;20091;-68
2023/07/15 01:30:51;;;;;;;1.25;1.08;;;;;;;;;;2099466;28;20032;-69
2023/07/15 01:32:11;;;;;;;1.20;1.10;;;;;;;;;;2099632;28;20111;-68
2023/07/15 01:33:30;;;;;;;1.48;1.17;;;;;;;;;;2099872;28;20040;-69
2023/07/15 01:34:49;;;;;;;1.65;1.05;;;;;;;;;;2099989;28;20476;-69
2023/07/15 01:36:08;;;;;;;1.80;1.00;;;;;;;;;;2099658;28;20472;-67
2023/07/15 01:37:27;;;;;;;3.00;1.35;;;;;;;;;;2099010;28;20095;-69
2023/07/15 01:38:46;;;;;;;3.03;1.23;;;;;;;;;;2099854;28;20114;-68
2023/07/15 01:40:08;;;;;;;2.38;1.20;;;;;;;;;;2100928;28;20532;-68
2023/07/15 01:41:27;;;;;;;2.83;1.40;;;;;;;;;;2100481;28;20021;-68
2023/07/15 01:42:46;;;;;;;1.92;1.33;;;;;;;;;;2099507;28;20024;-67
2023/07/15 01:44:05;;;;;;;1.50;1.30;;;;;;;;;;2098699;28;20024;-69
2023/07/15 01:45:25;;;;;;;1.83;1.02;;;;;;;;;;2099036;28;20036;-69
2023/07/15 01:46:44;;;;;;;1.33;1.23;;;;;;;;;;2099849;28;20045;-70
2023/07/15 01:48:04;;;;;;;2.90;1.20;;;;;;;;;;2099558;28;20418;-69
2023/07/15 01:49:23;;;;;;;2.10;1.27;;;;;;;;;;2096592;28;20028;-69
2023/07/15 01:50:42;;;;;;;1.63;1.23;;;;;;;;;;2098288;28;20493;-69
2023/07/15 01:52:02;;;;;;;1.40;1.30;;;;;;;;;;2100010;28;20024;-69
2023/07/15 01:53:21;;;;;;;1.50;1.40;;;;;;;;;;2099980;28;20037;-69
2023/07/15 01:54:39;;;;;;;1.30;1.20;;;;;;;;;;2099135;28;20020;-69
2023/07/15 01:55:58;;;;;;;1.27;1.20;;;;;;;;;;2100404;28;20942;-69
2023/07/15 01:57:17;;;;;;;1.13;1.13;;;;;;;;;;2099887;28;20032;-67
2023/07/15 01:58:36;;;;;;;2.15;1.45;;;;;;;;;;2100092;28;20025;-69
2023/07/15 01:59:57;;;;;;;1.20;1.10;;;;;;;;;;2099195;28;20369;-67
2023/07/15 02:01:16;;;;;;;1.38;1.35;;;;;;;;;;2099443;28;20036;-68
2023/07/15 02:02:35;;;;;;;3.53;1.38;;;;;;;;;;2100367;28;20028;-68
2023/07/15 02:03:54;;;;;;;1.50;1.40;;;;;;;;;;2100363;28;20031;-68
2023/07/15 02:05:13;;;;;;;3.28;1.45;;;;;;;;;;2099038;28;20033;-68
2023/07/15 02:06:32;;;;;;;2.25;1.30;;;;;;;;;;2098805;28;20036;-67
2023/07/15 02:07:51;;;;;;;2.42;1.55;;;;;;;;;;2100346;28;20040;-68
2023/07/15 02:09:10;;;;;;;1.40;1.30;;;;;;;;;;2102387;28;20033;-68
2023/07/15 02:10:32;;;;;;;1.45;1.20;;;;;;;;;;2100449;28;20021;-68
2023/07/15 02:11:51;;;;;;;1.65;1.55;;;;;;;;;;2101016;28;20037;-68
2023/07/15 02:13:11;;;;;;;3.20;2.22;;;;;;;;;;2100802;28;20043;-66
2023/07/15 02:14:30;;;;;;;1.80;1.25;;;;;;;;;;2101535;28;20020;-68
2023/07/15 02:15:49;;;;;;;1.92;1.40;;;;;;;;;;2101276;28;20020;-68
2023/07/15 02:17:08;;;;;;;3.90;1.50;;;;;;;;;;2100139;28;20107;-67
2023/07/15 02:18:26;;;;;;;2.00;1.25;;;;;;;;;;2100788;28;20024;-67
2023/07/15 02:19:47;;;;;;;1.67;1.40;;;;;;;;;;2099367;28;20020;-64
2023/07/15 02:21:06;;;;;;;2.97;1.02;;;;;;;;;;2100113;28;20020;-68
2023/07/15 02:22:25;;;;;;;2.53;1.58;;;;;;;;;;2101525;28;20490;-66
2023/07/15 02:23:44;;;;;;;1.52;1.27;;;;;;;;;;2100223;28;20028;-68
2023/07/15 02:25:04;;;;;;;1.25;1.15;;;;;;;;;;2101550;28;20032;-68
2023/07/15 02:26:23;;;;;;;3.90;1.40;;;;;;;;;;2100986;28;20020;-67
2023/07/15 02:27:42;;;;;;;2.42;1.30;;;;;;;;;;2099981;28;20430;-67
2023/07/15 02:29:01;;;;;;;1.60;1.23;;;;;;;;;;2102023;28;20060;-68
2023/07/15 02:30:20;;;;;;;2.65;1.30;;;;;;;;;;2101113;28;20459;-68
2023/07/15 02:31:39;;;;;;;1.33;1.23;;;;;;;;;;2101516;28;20020;-68
2023/07/15 02:32:58;;;;;;;1.77;1.40;;;;;;;;;;2101945;28;20027;-68
2023/07/15 02:34:18;;;;;;;1.42;1.33;;;;;;;;;;2101180;28;20556;-68
2023/07/15 02:35:38;;;;;;;1.35;1.30;;;;;;;;;;2101122;28;20032;-68
2023/07/15 02:36:57;;;;;;;4.78;1.58;;;;;;;;;;2101452;28;20095;-68
2023/07/15 02:38:16;;;;;;;1.40;1.10;;;;;;;;;;2100285;28;20111;-68
2023/07/15 02:39:35;;;;;;;1.67;1.50;;;;;;;;;;2100598;28;20509;-68
2023/07/15 02:40:54;;;;;;;1.30;1.30;;;;;;;;;;2100159;28;20055;-68
2023/07/15 02:42:13;;;;;;;1.40;1.30;;;;;;;;;;2101923;28;20393;-68
2023/07/15 02:43:32;;;;;;;1.92;1.50;;;;;;;;;;2102485;28;20036;-68
2023/07/15 02:44:51;;;;;;;1.63;1.50;;;;;;;;;;2092659;28;20029;-69
2023/07/15 02:46:10;;;;;;;1.80;1.45;;;;;;;;;;2097713;28;20082;-65
2023/07/15 02:47:30;;;;;;;1.45;1.20;;;;;;;;;;2100496;28;20064;-68
2023/07/15 02:48:49;;;;;;;1.50;1.40;;;;;;;;;;2100455;28;20115;-68
2023/07/15 02:50:08;;;;;;;2.63;1.55;;;;;;;;;;2100891;28;20110;-69
2023/07/15 02:51:28;;;;;;;1.73;1.63;;;;;;;;;;2101105;28;20062;-68
2023/07/15 02:52:47;;;;;;;1.80;1.58;;;;;;;;;;2092487;28;20044;-68
2023/07/15 02:54:06;;;;;;;1.73;1.52;;;;;;;;;;2098243;28;20025;-68
2023/07/15 02:55:25;;;;;;;1.38;1.27;;;;;;;;;;2101297;28;20032;-68
2023/07/15 02:56:44;;;;;;;3.85;2.33;;;;;;;;;;2100810;28;20338;-68
2023/07/15 02:58:03;;;;;;;1.73;1.52;;;;;;;;;;2100132;28;20533;-68
2023/07/15 02:59:22;;;;;;;2.85;1.73;;;;;;;;;;2102173;28;20032;-64
2023/07/15 03:00:41;;;;;;;2.13;1.63;;;;;;;;;;2101099;28;20033;-68
2023/07/15 03:02:01;;;;;;;2.03;1.23;;;;;;;;;;2101178;28;20567;-70
2023/07/15 03:03:20;;;;;;;4.55;1.95;;;;;;;;;;2099833;28;20021;-68
2023/07/15 03:04:39;;;;;;;1.58;1.48;;;;;;;;;;2100349;28;20111;-67
2023/07/15 03:05:58;;;;;;;1.60;1.50;;;;;;;;;;2100640;28;20024;-68
2023/07/15 03:07:18;;;;;;;2.00;1.52;;;;;;;;;;2099523;28;20041;-68
2023/07/15 03:08:36;;;;;;;2.13;2.00;;;;;;;;;;2092046;28;20040;-68
2023/07/15 03:09:56;;;;;;;1.50;1.40;;;;;;;;;;2096923;28;20064;-68
2023/07/15 03:11:15;;;;;;;1.80;1.70;;;;;;;;;;2100551;28;20036;-69
2023/07/15 03:12:34;;;;;;;1.75;1.65;;;;;;;;;;2098786;28;20024;-68
2023/07/15 03:13:54;;;;;;;2.42;1.48;;;;;;;;;;2100088;28;20028;-68
2023/07/15 03:15:14;;;;;;;2.35;1.45;;;;;;;;;;2099949;28;20037;-68
2023/07/15 03:16:33;;;;;;;3.30;1.70;;;;;;;;;;2101363;28;20029;-69
2023/07/15 03:17:52;;;;;;;1.65;1.55;;;;;;;;;;2100694;28;20029;-70
2023/07/15 03:19:11;;;;;;;2.58;1.70;;;;;;;;;;2099523;28;20429;-68
2023/07/15 03:20:30;;;;;;;1.88;1.52;;;;;;;;;;2097145;28;20020;-69
2023/07/15 03:21:49;;;;;;;2.88;1.60;;;;;;;;;;2098636;28;20036;-68
2023/07/15 03:23:08;;;;;;;3.40;1.80;;;;;;;;;;2101361;28;20028;-68
2023/07/15 03:24:27;;;;;;;1.95;1.52;;;;;;;;;;2091718;28;20425;-68
2023/07/15 03:25:46;;;;;;;3.42;1.33;;;;;;;;;;2096271;28;20028;-69
2023/07/15 03:27:05;;;;;;;1.63;1.52;;;;;;;;;;2099572;28;20024;-67
2023/07/15 03:28:23;;;;;;;4.15;1.65;;;;;;;;;;2101539;28;20032;-68
2023/07/15 03:29:42;;;;;;;1.70;1.60;;;;;;;;;;2100505;28;20040;-68
2023/07/15 03:31:01;;;;;;;3.65;1.50;;;;;;;;;;2099159;28;20028;-67
2023/07/15 03:32:22;;;;;;;1.50;1.40;;;;;;;;;;2099796;28;20052;-67
2023/07/15 03:33:42;;;;;;;2.45;1.50;;;;;;;;;;2099795;28;20059;-67
2023/07/15 03:35:01;;;;;;;1.60;1.50;;;;;;;;;;2099884;28;20477;-68
2023/07/15 03:36:20;;;;;;;2.03;1.50;;;;;;;;;;2101336;28;20508;-69
2023/07/15 03:37:42;;;;;;;1.95;1.65;;;;;;;;;;2100605;28;20024;-67
2023/07/15 03:39:02;;;;;;;5.93;1.80;;;;;;;;;;2099084;28;20020;-68
2023/07/15 03:40:21;;;;;;;1.70;1.52;;;;;;;;;;2090517;28;20033;-68
2023/07/15 03:41:40;;;;;;;2.25;1.67;;;;;;;;;;2096893;28;20046;-68
2023/07/15 03:42:59;;;;;;;2.40;1.58;;;;;;;;;;2100619;28;20037;-67
2023/07/15 03:44:18;;;;;;;1.48;1.40;;;;;;;;;;2100532;28;20421;-68
2023/07/15 03:45:37;;;;;;;2.85;1.65;;;;;;;;;;2100706;28;20063;-68
2023/07/15 03:46:57;;;;;;;5.05;1.80;;;;;;;;;;2100240;28;20393;-67
2023/07/15 03:48:16;;;;;;;2.10;1.50;;;;;;;;;;2099428;28;20040;-68
2023/07/15 03:49:35;;;;;;;2.47;1.63;;;;;;;;;;2101359;28;20036;-68
2023/07/15 03:50:54;;;;;;;1.23;1.23;;;;;;;;;;2100301;28;20481;-67
2023/07/15 03:52:13;;;;;;;3.47;1.58;;;;;;;;;;2099269;28;20040;-68
2023/07/15 03:53:32;;;;;;;3.58;1.58;;;;;;;;;;2100181;28;20040;-68
2023/07/15 03:54:51;;;;;;;2.10;1.67;;;;;;;;;;2098430;28;20537;-68
2023/07/15 03:56:10;;;;;;;2.70;1.58;;;;;;;;;;2100319;28;20104;-65
2023/07/15 03:57:29;;;;;;;2.00;1.65;;;;;;;;;;2100311;28;20032;-67
2023/07/15 03:58:48;;;;;;;1.50;1.40;;;;;;;;;;2098764;28;20020;-67
2023/07/15 04:00:16;;;;;;;5.13;1.50;;;;;;;;;;2098704;28;20025;-68
2023/07/15 04:01:38;;;;;;;4.18;1.50;;;;;;;;;;2072257;28;20183;-69
2023/07/15 04:02:57;;;;;;;4.68;1.70;;;;;;;;;;2064277;28;20074;-66
2023/07/15 04:04:16;;;;;;;2.25;1.58;;;;;;;;;;2062805;28;20027;-68
2023/07/15 04:05:36;;;;;;;1.42;1.33;;;;;;;;;;2061154;28;20034;-68
2023/07/15 04:06:55;;;;;;;1.63;1.52;;;;;;;;;;2064184;28;20022;-69
2023/07/15 04:08:13;;;;;;;1.95;1.63;;;;;;;;;;2062721;28;20113;-67
2023/07/15 04:09:32;;;;;;;2.13;1.50;;;;;;;;;;2066571;28;20042;-69
2023/07/15 04:10:51;;;;;;;1.63;1.50;;;;;;;;;;2069905;28;20482;-68
2023/07/15 04:12:12;;;;;;;1.60;1.50;;;;;;;;;;2062519;28;20423;-68
2023/07/15 04:13:31;;;;;;;2.00;1.60;;;;;;;;;;2062626;28;20062;-68
2023/07/15 04:14:50;;;;;;;4.90;1.77;;;;;;;;;;2064649;28;20047;-69
2023/07/15 04:16:09;;;;;;;1.90;1.55;;;;;;;;;;2064643;28;20042;-69
2023/07/15 04:17:28;;;;;;;2.50;1.55;;;;;;;;;;2063552;28;20386;-68
2023/07/15 04:18:46;;;;;;;4.35;1.45;;;;;;;;;;2064021;28;20062;-68
2023/07/15 04:20:14;;;;;;;3.25;1.98;;;;;;;;;;2065022;28;20042;-68
2023/07/15 04:21:33;;;;;;;1.98;1.88;;;;;;;;;;2063881;28;20063;-68
2023/07/15 04:22:52;;;;;;;1.67;1.58;;;;;;;;;;2063894;28;20026;-68
2023/07/15 04:24:10;;;;;;;2.17;2.03;;;;;;;;;;2062430;28;20714;-69
2023/07/15 04:25:29;;;;;;;1.75;1.65;;;;;;;;;;2065031;28;20027;-68
2023/07/15 04:26:48;;;;;;;2.05;1.70;;;;;;;;;;2064325;28;20039;-68
2023/07/15 04:28:08;;;;;;;2.08;1.20;;;;;;;;;;2064765;28;20425;-68
2023/07/15 04:29:28;;;;;;;1.55;1.40;;;;;;;;;;2063516;28;20046;-69
2023/07/15 04:30:47;;;;;;;1.95;1.77;;;;;;;;;;2064362;28;20018;-68
2023/07/15 04:32:06;;;;;;;1.80;1.58;;;;;;;;;;2068703;28;20031;-69
2023/07/15 04:33:25;;;;;;;2.20;2.00;;;;;;;;;;2063179;28;20031;-69
2023/07/15 04:34:49;;;;;;;1.88;1.73;;;;;;;;;;2056330;28;20027;-69
2023/07/15 04:36:08;;;;;;;5.60;1.90;;;;;;;;;;2056366;28;20023;-68
2023/07/15 04:37:27;;;;;;;3.15;1.50;;;;;;;;;;2056600;28;20484;-68
2023/07/15 04:38:47;;;;;;;2.80;1.50;;;;;;;;;;2055493;28;20534;-69
2023/07/15 04:40:07;;;;;;;2.17;1.50;;;;;;;;;;2053822;28;20031;-65
2023/07/15 04:41:26;;;;;;;1.85;1.75;;;;;;;;;;2066221;28;20029;-68
2023/07/15 04:42:45;;;;;;;2.88;1.52;;;;;;;;;;2056406;28;20019;-66
2023/07/15 04:44:04;;;;;;;1.77;1.60;;;;;;;;;;2056223;28;20399;-69
2023/07/15 04:45:22;;;;;;;2.50;1.77;;;;;;;;;;2056108;28;20496;-68
2023/07/15 04:46:41;;;;;;;4.85;1.80;;;;;;;;;;2054939;28;20436;-68
2023/07/15 04:48:00;;;;;;;4.97;2.10;;;;;;;;;;2055134;28;20114;-69
2023/07/15 04:49:19;;;;;;;1.60;1.50;;;;;;;;;;2058232;28;20458;-68
2023/07/15 04:50:38;;;;;;;2.25;1.48;;;;;;;;;;2056260;28;20030;-68
2023/07/15 04:51:57;;;;;;;3.33;1.98;;;;;;;;;;2054454;28;20035;-69
2023/07/15 04:53:16;;;;;;;3.15;1.63;;;;;;;;;;2056760;28;20035;-68
2023/07/15 04:54:35;;;;;;;2.55;1.85;;;;;;;;;;2058433;28;20035;-68
2023/07/15 04:55:54;;;;;;;1.80;1.70;;;;;;;;;;2056109;28;20500;-68
2023/07/15 04:57:13;;;;;;;1.55;1.45;;;;;;;;;;2057105;28;20503;-69
2023/07/15 04:58:32;;;;;;;3.42;1.40;;;;;;;;;;2055281;28;20060;-66
2023/07/15 04:59:52;;;;;;;1.58;1.48;;;;;;;;;;2058098;28;20035;-66
2023/07/15 05:01:11;;;;;;;1.60;1.48;;;;;;;;;;2060409;28;20130;-68
2023/07/15 05:02:30;;;;;;;2.28;1.58;;;;;;;;;;2064236;28;20034;-69
2023/07/15 05:03:49;;;;;;;1.70;1.60;;;;;;;;;;2065510;28;20026;-68
2023/07/15 05:05:08;;;;;;;1.80;1.55;;;;;;;;;;2062941;28;20476;-68
2023/07/15 05:06:27;;;;;;;2.47;1.48;;;;;;;;;;2064197;28;20160;-69
2023/07/15 05:07:48;;;;;;;1.85;1.45;;;;;;;;;;2063612;28;20030;-68
2023/07/15 05:09:09;;;;;;;1.85;1.45;;;;;;;;;;2065226;28;20034;-67
2023/07/15 05:10:28;;;;;;;2.50;1.55;;;;;;;;;;2063231;28;20027;-69
2023/07/15 05:11:47;;;;;;;2.72;1.73;;;;;;;;;;2063560;28;20034;-68
2023/07/15 05:13:09;;;;;;;3.80;2.05;;;;;;;;;;2056880;28;20065;-68
2023/07/15 05:14:28;;;;;;;4.45;1.80;;;;;;;;;;2058243;28;20081;-68
2023/07/15 05:15:47;;;;;;;1.63;1.52;;;;;;;;;;2058534;28;20026;-68
2023/07/15 05:17:07;;;;;;;1.45;1.35;;;;;;;;;;2058662;28;20026;-69
2023/07/15 05:18:26;;;;;;;1.80;1.70;;;;;;;;;;2059149;28;20030;-69
2023/07/15 05:19:45;;;;;;;2.17;1.65;;;;;;;;;;2058080;28;20035;-66
2023/07/15 05:21:04;;;;;;;1.95;1.67;;;;;;;;;;2058434;28;20042;-68
2023/07/15 05:22:23;;;;;;;2.10;1.70;;;;;;;;;;2058323;28;20035;-68
2023/07/15 05:23:42;;;;;;;3.78;1.80;;;;;;;;;;2057441;28;20034;-69
2023/07/15 05:25:01;;;;;;;1.77;1.60;;;;;;;;;;2050017;28;20415;-68
2023/07/15 05:26:20;;;;;;;1.77;1.48;;;;;;;;;;2055722;28;20419;-64
2023/07/15 05:27:39;;;;;;;1.67;1.58;;;;;;;;;;2060270;28;20030;-69
2023/07/15 05:28:58;;;;;;;2.53;1.63;;;;;;;;;;2059442;28;20034;-69
2023/07/15 05:30:19;;;;;;;3.30;1.90;;;;;;;;;;2057823;28;20031;-68
2023/07/15 05:31:38;;;;;;;4.18;1.83;;;;;;;;;;2061175;28;20398;-68
2023/07/15 05:32:58;;;;;;;3.78;1.58;;;;;;;;;;2062441;28;20041;-69
2023/07/15 05:34:17;;;;;;;2.50;1.70;;;;;;;;;;2057995;28;20391;-69
2023/07/15 05:35:36;;;;;;;2.53;1.65;;;;;;;;;;2057502;28;20073;-68
2023/07/15 05:36:54;;;;;;;2.20;1.42;;;;;;;;;;2057824;28;20051;-67
2023/07/15 05:38:13;;;;;;;1.70;1.33;;;;;;;;;;2052008;28;20515;-65
2023/07/15 05:39:32;;;;;;;1.80;1.23;;;;;;;;;;2056925;28;20039;-68
2023/07/15 05:40:55;;;;;;;1.63;1.50;;;;;;;;;;2056961;28;20042;-68
2023/07/15 05:42:15;;;;;;;1.98;1.33;;;;;;;;;;2058727;28;20023;-68
2023/07/15 05:43:34;;;;;;;3.20;1.80;;;;;;;;;;2049384;28;20035;-67
2023/07/15 05:44:52;;;;;;;2.25;1.70;;;;;;;;;;2047285;28;20587;-71
2023/07/15 05:46:11;;;;;;;3.22;1.25;;;;;;;;;;2060013;28;20022;-69
2023/07/15 05:47:30;;;;;;;3.28;1.50;;;;;;;;;;2057938;28;20030;-68
2023/07/15 05:48:49;;;;;;;2.45;1.35;;;;;;;;;;2058795;28;20026;-68
2023/07/15 05:50:08;;;;;;;4.60;1.50;;;;;;;;;;2058539;28;20042;-68
2023/07/15 05:51:27;;;;;;;1.58;1.20;;;;;;;;;;2058123;28;20042;-68
2023/07/15 05:52:46;;;;;;;2.80;1.73;;;;;;;;;;2057748;28;20106;-69
2023/07/15 05:54:05;;;;;;;3.08;1.50;;;;;;;;;;2059962;28;20106;-69
2023/07/15 05:55:24;;;;;;;1.88;1.77;;;;;;;;;;2058086;28;20034;-69
2023/07/15 05:56:43;;;;;;;5.18;1.88;;;;;;;;;;2059069;28;20068;-68
2023/07/15 05:58:09;;;;;;;2.45;1.65;;;;;;;;;;2058015;28;20055;-69
2023/07/15 05:59:28;;;;;;;3.13;1.98;;;;;;;;;;2057929;28;20066;-70
2023/07/15 06:00:48;;;;;;;3.78;1.75;;;;;;;;;;2058027;28;20383;-68
2023/07/15 06:02:06;;;;;;;3.10;1.98;;;;;;;;;;2058475;28;20064;-65
2023/07/15 06:03:25;;;;;;;2.85;1.40;;;;;;;;;;2059122;28;20463;-69
2023/07/15 06:04:44;;;;;;;1.80;1.40;;;;;;;;;;2057316;28;20122;-68
2023/07/15 06:06:03;;;;;;;2.70;1.67;;;;;;;;;;2058334;28;20426;-69
2023/07/15 06:07:22;;;;;;;2.30;1.50;;;;;;;;;;2058691;28;20031;-69
2023/07/15 06:08:41;;;;;;;2.40;1.50;;;;;;;;;;2058885;28;20039;-69
2023/07/15 06:10:00;;;;;;;2.95;1.65;;;;;;;;;;2058277;28;20034;-69
2023/07/15 06:11:19;;;;;;;2.08;1.65;;;;;;;;;;2057029;28;20980;-69
2023/07/15 06:12:38;;;;;;;2.88;1.30;;;;;;;;;;2059205;28;20030;-68
2023/07/15 06:14:00;;;;;;;1.88;1.65;;;;;;;;;;2058166;28;20130;-68
2023/07/15 06:15:19;;;;;;;3.28;1.73;;;;;;;;;;2057758;28;20110;-68
2023/07/15 06:16:38;;;;;;;3.42;1.88;;;;;;;;;;2049186;28;20190;-68
2023/07/15 06:17:59;;;;;;;3.40;1.55;;;;;;;;;;2054710;28;20543;-68
2023/07/15 06:19:18;;;;;;;1.58;1.48;;;;;;;;;;2055854;28;20047;-68
2023/07/15 06:20:38;;;;;;;2.42;1.38;;;;;;;;;;2057490;28;20038;-63
2023/07/15 06:21:57;;;;;;;1.40;1.30;;;;;;;;;;2057480;28;20030;-68
2023/07/15 06:23:16;;;;;;;1.67;1.42;;;;;;;;;;2058991;28;20404;-69
2023/07/15 06:24:35;;;;;;;1.75;1.25;;;;;;;;;;2055589;28;20061;-69
2023/07/15 06:25:55;;;;;;;1.63;1.40;;;;;;;;;;2057308;28;20027;-68
2023/07/15 06:27:14;;;;;;;1.70;1.60;;;;;;;;;;2057999;28;20036;-68
2023/07/15 06:28:33;;;;;;;1.45;1.15;;;;;;;;;;2060089;28;20038;-69
2023/07/15 06:29:52;;;;;;;2.15;1.45;;;;;;;;;;2058365;28;20023;-69
2023/07/15 06:31:11;;;;;;;1.73;1.40;;;;;;;;;;2058875;28;20026;-69
2023/07/15 06:32:30;;;;;;;1.55;1.45;;;;;;;;;;2057391;28;20043;-68
2023/07/15 06:33:49;;;;;;;2.10;1.35;;;;;;;;;;2048186;28;20031;-68
2023/07/15 06:35:08;;;;;;;1.90;1.40;;;;;;;;;;2054448;28;20035;-69
2023/07/15 06:36:27;;;;;;;2.90;1.25;;;;;;;;;;2062080;28;20396;-68
2023/07/15 06:37:47;;;;;;;2.25;1.40;;;;;;;;;;2058475;28;20062;-69
2023/07/15 06:39:06;;;;;;;3.17;1.23;;;;;;;;;;2057056;28;20042;-70
2023/07/15 06:40:24;;;;;;;1.77;1.65;;;;;;;;;;2056761;28;20030;-67
2023/07/15 06:41:43;;;;;;;1.60;1.20;;;;;;;;;;2057333;28;20519;-69
2023/07/15 06:43:02;;;;;;;4.43;1.50;;;;;;;;;;2050602;28;20050;-68
2023/07/15 06:44:22;;;;;;;2.35;1.25;;;;;;;;;;2054532;28;20027;-68
2023/07/15 06:45:40;;;;;;;2.65;1.25;;;;;;;;;;2058632;28;20387;-69
2023/07/15 06:46:59;;;;;;;1.83;1.58;;;;;;;;;;2058072;28;20030;-69
2023/07/15 06:48:18;;;;;;;2.28;1.27;;;;;;;;;;2057215;28;20462;-67
2023/07/15 06:49:37;;;;;;;1.73;1.40;;;;;;;;;;2056975;28;20063;-68
2023/07/15 06:50:57;;;;;;;2.90;1.30;;;;;;;;;;2058447;28;20027;-69
2023/07/15 06:52:15;;;;;;;1.52;1.42;;;;;;;;;;2049565;28;20110;-65
2023/07/15 06:53:34;;;;;;;2.65;1.50;;;;;;;;;;2058695;28;20023;-69
2023/07/15 06:54:53;;;;;;;1.88;1.40;;;;;;;;;;2058434;28;20027;-69
2023/07/15 06:56:12;;;;;;;2.00;1.65;;;;;;;;;;2060696;28;20504;-69
2023/07/15 06:57:31;;;;;;;2.60;1.48;;;;;;;;;;2057805;28;20488;-69
2023/07/15 06:58:51;;;;;;;3.30;1.23;;;;;;;;;;2058259;28;20455;-68
2023/07/15 07:00:10;;;;;;;3.28;1.50;;;;;;;;;;2057693;28;20038;-68
2023/07/15 07:01:29;;;;;;;3.30;1.42;;;;;;;;;;2062632;28;20496;-69
2023/07/15 07:02:48;;;;;;;2.78;1.35;;;;;;;;;;2058496;28;20039;-69
2023/07/15 07:04:07;;;;;;;2.40;1.50;;;;;;;;;;2058214;28;20038;-66
2023/07/15 07:05:27;;;;;;;2.25;1.27;;;;;;;;;;2059310;28;20408;-69
2023/07/15 07:06:45;;;;;;;1.08;1.08;;;;;;;;;;2058597;28;20480;-69
2023/07/15 07:08:04;;;;;;;3.35;2.28;;;;;;;;;;2057981;28;20027;-68
2023/07/15 07:09:23;;;;;;;2.28;1.40;;;;;;;;;;2057837;28;20035;-67
2023/07/15 07:10:42;;;;;;;1.20;1.02;;;;;;;;;;2059579;28;20031;-65
2023/07/15 07:12:01;;;;;;;2.42;1.20;;;;;;;;;;2056785;28;20031;-68
2023/07/15 07:13:20;;;;;;;1.60;1.30;;;;;;;;;;2058480;28;20039;-68
2023/07/15 07:14:39;;;;;;;4.18;1.50;;;;;;;;;;2057176;28;20102;-68
2023/07/15 07:15:59;;;;;;;1.50;1.10;;;;;;;;;;2061007;28;20029;-69
2023/07/15 07:17:17;;;;;;;2.85;1.73;;;;;;;;;;2058393;28;20113;-69
2023/07/15 07:18:36;;;;;;;3.38;1.20;;;;;;;;;;2057495;28;20423;-68
2023/07/15 07:19:55;;;;;;;2.55;1.85;;;;;;;;;;2045146;28;20032;-69
2023/07/15 07:21:14;;;;;;;2.72;1.30;;;;;;;;;;2053014;28;20038;-68
2023/07/15 07:22:33;;;;;;;3.25;1.67;;;;;;;;;;2061161;28;20043;-69
2023/07/15 07:23:55;;;;;;;1.65;1.27;;;;;;;;;;2056867;28;20038;-69
2023/07/15 07:25:13;;;;;;;1.95;1.20;;;;;;;;;;2062330;28;20741;-70
2023/07/15 07:26:33;;;;;;;1.45;1.27;;;;;;;;;;2058092;28;20055;-64
2023/07/15 07:27:52;;;;;;;1.60;1.20;;;;;;;;;;2060543;28;20035;-69
2023/07/15 07:29:11;;;;;;;3.13;1.40;;;;;;;;;;2057387;28;20039;-69
2023/07/15 07:30:30;;;;;;;2.25;1.25;;;;;;;;;;2059483;28;20029;-69
2023/07/15 07:31:49;;;;;;;1.30;1.20;;;;;;;;;;2057618;28;20038;-64
2023/07/15 07:33:08;;;;;;;1.50;1.30;;;;;;;;;;2059777;28;20035;-68
2023/07/15 07:34:27;;;;;;;3.90;1.50;;;;;;;;;;2059849;28;20394;-68
2023/07/15 07:35:49;;;;;;;1.40;1.30;;;;;;;;;;2057895;28;20035;-68
2023/07/15 07:37:08;;;;;;;1.08;0.95;;;;;;;;;;2055695;28;20076;-66
2023/07/15 07:38:27;;;;;;;1.35;1.20;;;;;;;;;;2055381;28;20512;-68
2023/07/15 07:39:46;;;;;;;1.80;1.27;;;;;;;;;;2056990;28;20519;-68
2023/07/15 07:41:06;;;;;;;3.65;1.10;;;;;;;;;;2057223;28;20129;-67
2023/07/15 07:42:24;;;;;;;3.97;1.00;;;;;;;;;;2055195;28;20026;-68
2023/07/15 07:43:44;;;;;;;1.00;0.90;;;;;;;;;;2056636;28;20021;-69
2023/07/15 07:45:13;;;;;;;2.47;1.23;;;;;;;;;;2060986;28;20039;-68
2023/07/15 07:46:32;;;;;;;1.45;1.00;;;;;;;;;;2056110;28;20039;-67
2023/07/15 07:47:51;;;;;;;2.25;0.80;;;;;;;;;;2056886;28;20035;-67
2023/07/15 07:49:10;;;;;;;1.45;1.17;;;;;;;;;;2056096;28;20034;-68
2023/07/15 07:50:29;;;;;;;1.83;1.10;;;;;;;;;;2057133;28;20030;-65
2023/07/15 07:51:48;;;;;;;1.23;0.70;;;;;;;;;;2055150;28;20035;-68
2023/07/15 07:53:07;;;;;;;1.25;0.95;;;;;;;;;;2054782;28;20106;-68
2023/07/15 07:54:26;;;;;;;1.20;0.80;;;;;;;;;;2063905;28;20035;-68
2023/07/15 07:55:45;;;;;;;1.08;0.90;;;;;;;;;;2056089;28;20038;-68
2023/07/15 07:57:04;;;;;;;1.65;0.90;;;;;;;;;;2055746;28;20039;-67